Time;durP1;ratioP1;P1;durP2;ratioP2;P2;SDS_P1;SDS_P2;PMS_P1;PMS_P2;Temp;Humidity;BMP_temperature;BMP_pressure;BME280_temperature;BME280_humidity;BME280_pressure;Samples;Min_cycle;Max_cycle;Signal;HPM_P1;HPM_P2
2023/09/21 00:00:13;;;;;;;12.40;5.90;;;;;;;13.50;100.00;100641.37;105875;1257;64545;-52
2023/09/21 00:02:44;;;;;;;20.00;6.40;;;;;;;13.53;100.00;100644.42;105844;1253;72672;-53
2023/09/21 00:05:12;;;;;;;20.00;5.90;;;;;;;13.53;100.00;100642.15;105826;1258;60428;-51
2023/09/21 00:07:39;;;;;;;8.90;5.60;;;;;;;13.52;100.00;100643.77;105893;1253;60480;-53
2023/09/21 00:10:08;;;;;;;17.50;5.70;;;;;;;13.51;100.00;100646.37;105843;1256;74043;-49
2023/09/21 00:12:35;;;;;;;9.40;6.00;;;;;;;13.49;100.00;100641.38;105898;1256;64526;-52
2023/09/21 00:15:05;;;;;;;15.80;6.70;;;;;;;13.44;100.00;100638.92;105827;1253;72394;-51
2023/09/21 00:17:33;;;;;;;12.90;6.10;;;;;;;13.40;100.00;100640.05;105887;1258;60323;-52
2023/09/21 00:23:11;;;;;;;18.00;6.10;;;;;;;13.34;100.00;100644.37;105345;1260;73983;-50
2023/09/21 00:25:38;;;;;;;11.70;5.40;;;;;;;13.33;100.00;100643.55;105801;1253;64711;-50
2023/09/21 00:28:08;;;;;;;16.30;5.70;;;;;;;13.32;100.00;100643.73;105838;1253;72632;-51
2023/09/21 00:30:35;;;;;;;12.80;5.70;;;;;;;13.30;100.00;100645.02;105804;1259;60426;-51
2023/09/21 00:33:02;;;;;;;18.00;5.40;;;;;;;13.28;100.00;100646.80;105720;1253;60460;-51
2023/09/21 00:35:29;;;;;;;10.70;5.90;;;;;;;13.25;100.00;100651.88;105898;1257;73714;-50
2023/09/21 00:37:57;;;;;;;15.40;6.40;;;;;;;13.21;100.00;100658.23;105940;1253;62992;-54
2023/09/21 00:42:18;;;;;;;13.00;6.70;;;;;;;13.19;100.00;100626.92;102758;1293;600466;-56
2023/09/21 00:44:46;;;;;;;20.00;6.50;;;;;;;13.16;100.00;100652.83;105119;1269;59612;-52
2023/09/21 00:47:14;;;;;;;17.20;6.10;;;;;;;13.11;100.00;100656.92;105092;1269;59233;-55
2023/09/21 00:49:42;;;;;;;12.20;6.20;;;;;;;13.07;100.00;100663.11;104899;1264;70989;-55
2023/09/21 00:52:12;;;;;;;13.00;6.50;;;;;;;13.04;100.00;100666.80;104837;1265;64172;-52
2023/09/21 00:54:40;;;;;;;15.60;6.60;;;;;;;13.01;100.00;100673.81;104933;1267;71359;-50
2023/09/21 00:57:08;;;;;;;12.40;6.30;;;;;;;12.97;100.00;100671.83;104785;1267;385306;-54
2023/09/21 00:59:39;;;;;;;16.20;6.30;;;;;;;12.94;100.00;100673.80;105102;1267;59343;-51
2023/09/21 01:02:07;;;;;;;15.30;6.40;;;;;;;12.93;100.00;100672.63;104962;1262;70969;-51
2023/09/21 01:04:35;;;;;;;13.20;6.60;;;;;;;12.92;100.00;100678.16;105151;1263;63164;-53
2023/09/21 01:07:11;;;;;;;20.90;6.80;;;;;;;12.92;100.00;100674.56;105205;1265;71574;-54
2023/09/21 01:09:39;;;;;;;10.90;6.50;;;;;;;12.90;100.00;100671.30;105219;1267;60504;-50
2023/09/21 01:12:07;;;;;;;16.10;6.60;;;;;;;12.87;100.00;100672.24;105243;1263;59605;-51
2023/09/21 01:14:37;;;;;;;11.10;6.70;;;;;;;12.82;100.00;100677.05;105049;1268;73035;-52
2023/09/21 01:17:05;;;;;;;16.30;7.00;;;;;;;12.79;100.00;100680.77;105010;1269;63192;-52
2023/09/21 01:19:33;;;;;;;13.00;6.20;;;;;;;12.78;100.00;100685.27;105191;1267;71419;-52
2023/09/21 01:22:06;;;;;;;20.00;7.00;;;;;;;12.78;100.00;100688.57;105067;1269;60058;-50
2023/09/21 01:24:35;;;;;;;24.20;7.20;;;;;;;12.76;100.00;100693.11;105225;1266;59617;-51
2023/09/21 01:27:03;;;;;;;11.70;6.30;;;;;;;12.75;100.00;100694.69;105065;1264;71811;-50
2023/09/21 01:29:32;;;;;;;11.90;6.20;;;;;;;12.76;100.00;100695.90;105196;1267;63142;-50
2023/09/21 01:31:59;;;;;;;24.50;6.90;;;;;;;12.77;100.00;100695.71;105023;1266;71442;-50
2023/09/21 01:34:27;;;;;;;14.00;7.30;;;;;;;12.74;100.00;100694.36;105204;1264;60086;-49
2023/09/21 01:36:55;;;;;;;19.80;7.30;;;;;;;12.73;100.00;100698.90;105207;1266;59747;-50
2023/09/21 01:39:22;;;;;;;9.80;6.60;;;;;;;12.70;100.00;100706.42;105302;1260;71910;-49
2023/09/21 01:41:53;;;;;;;15.00;6.70;;;;;;;12.67;100.00;100713.93;105214;1265;63123;-51
2023/09/21 01:44:21;;;;;;;16.90;7.20;;;;;;;12.64;100.00;100723.52;105245;1264;71727;-50
2023/09/21 01:46:52;;;;;;;14.10;6.70;;;;;;;12.62;100.00;100736.38;105208;1266;59683;-50
2023/09/21 01:49:20;;;;;;;14.70;6.80;;;;;;;12.60;100.00;100748.89;105242;1264;59637;-50
2023/09/21 01:51:51;;;;;;;17.70;6.70;;;;;;;12.57;100.00;100764.70;105184;1265;71498;-51
2023/09/21 01:54:19;;;;;;;21.90;6.70;;;;;;;12.56;100.00;100778.23;105250;1266;63132;-50
2023/09/21 01:56:47;;;;;;;18.50;6.60;;;;;;;12.52;100.00;100794.59;105245;1261;72660;-51
2023/09/21 01:59:15;;;;;;;13.30;7.20;;;;;;;12.47;100.00;100817.37;105253;1265;59650;-50
2023/09/21 02:01:47;;;;;;;19.70;7.60;;;;;;;12.42;100.00;100835.81;105540;1261;59587;-51
2023/09/21 02:04:15;;;;;;;15.50;6.50;;;;;;;12.38;100.00;100854.06;105560;1260;72964;-50
2023/09/21 02:06:43;;;;;;;14.30;6.70;;;;;;;12.33;100.00;100873.88;105531;1257;63252;-49
2023/09/21 02:09:14;;;;;;;12.30;6.70;;;;;;;12.29;100.00;100882.95;105602;1261;71444;-49
2023/09/21 02:11:44;;;;;;;17.40;6.90;;;;;;;12.28;100.00;100898.21;105619;1260;59685;-50
2023/09/21 02:14:12;;;;;;;14.10;6.90;;;;;;;12.27;100.00;100914.67;105624;1257;60319;-52
2023/09/21 02:16:39;;;;;;;16.20;7.00;;;;;;;12.24;100.00;100926.13;105475;1258;72143;-49
2023/09/21 02:19:07;;;;;;;18.40;7.30;;;;;;;12.21;100.00;100940.19;105573;1260;63130;-50
2023/09/21 02:21:35;;;;;;;19.60;7.00;;;;;;;12.19;100.00;100955.98;105572;1261;70789;-51
2023/09/21 02:24:04;;;;;;;15.00;7.30;;;;;;;12.16;100.00;100982.52;105556;1261;59653;-50
2023/09/21 02:26:32;;;;;;;18.70;7.30;;;;;;;12.09;100.00;101011.84;105593;1260;59608;-49
2023/09/21 02:29:01;;;;;;;14.50;6.20;;;;;;;12.05;100.00;101044.96;105543;1260;72317;-49
2023/09/21 02:31:28;;;;;;;17.90;6.70;;;;;;;12.02;100.00;101081.15;105568;1260;64337;-50
2023/09/21 02:33:56;;;;;;;12.80;7.20;;;;;;;12.00;100.00;101125.09;105538;1260;72629;-51
2023/09/21 02:36:25;;;;;;;14.00;6.80;;;;;;;12.00;100.00;101168.15;105570;1257;60533;-51
2023/09/21 02:38:52;;;;;;;13.30;6.70;;;;;;;11.98;100.00;101203.63;105618;1257;59583;-49
2023/09/21 02:41:20;;;;;;;9.10;6.30;;;;;;;11.94;100.00;101235.85;105478;1263;73029;-51
2023/09/21 02:43:48;;;;;;;11.60;6.30;;;;;;;11.91;100.00;101278.61;105578;1257;64556;-51
2023/09/21 02:46:16;;;;;;;16.70;7.70;;;;;;;11.88;100.00;101321.02;105627;1261;72150;-51
2023/09/21 02:48:44;;;;;;;12.20;7.10;;;;;;;11.86;100.00;101369.11;105526;1261;60398;-51
2023/09/21 02:51:13;;;;;;;21.20;7.10;;;;;;;11.84;100.00;101411.50;105540;1256;60197;-48
2023/09/21 02:53:42;;;;;;;9.80;6.90;;;;;;;11.82;100.00;101446.45;105532;1262;72992;-50
2023/09/21 02:56:10;;;;;;;15.80;7.00;;;;;;;11.79;100.00;101476.39;105581;1257;62637;-49
2023/09/21 02:58:40;;;;;;;13.50;6.90;;;;;;;11.75;100.00;101502.36;105527;1263;71456;-50
2023/09/21 03:01:10;;;;;;;14.20;7.10;;;;;;;11.71;100.00;101524.85;105511;1258;60470;-48
2023/09/21 03:03:38;;;;;;;21.80;7.70;;;;;;;11.69;100.00;101545.45;105609;1256;59248;-51
2023/09/21 03:06:06;;;;;;;18.40;7.10;;;;;;;11.68;100.00;101565.68;105562;1257;71799;-50
2023/09/21 03:08:34;;;;;;;14.00;6.80;;;;;;;11.68;100.00;101580.73;105548;1262;62587;-51
2023/09/21 03:11:04;;;;;;;14.00;7.30;;;;;;;11.66;100.00;101588.70;105548;1257;72657;-49
2023/09/21 03:13:32;;;;;;;20.40;7.40;;;;;;;11.62;100.00;101596.65;105551;1262;59661;-50
2023/09/21 03:16:00;;;;;;;17.50;8.00;;;;;;;11.59;100.00;101607.39;105575;1260;59596;-50
2023/09/21 03:18:30;;;;;;;19.50;7.20;;;;;;;11.57;100.00;101610.52;105565;1261;71864;-50
2023/09/21 03:20:58;;;;;;;16.20;6.90;;;;;;;11.54;100.00;101611.92;105584;1257;64552;-51
2023/09/21 03:23:27;;;;;;;18.50;7.30;;;;;;;11.49;100.00;101617.98;105509;1256;72739;-51
2023/09/21 03:25:55;;;;;;;12.20;6.70;;;;;;;11.44;100.00;101623.86;105354;1257;60424;-51
2023/09/21 03:28:24;;;;;;;17.40;7.40;;;;;;;11.44;100.00;101626.12;105536;1259;59519;-53
2023/09/21 03:30:56;;;;;;;16.00;7.50;;;;;;;11.44;100.00;101629.92;105561;1256;73233;-52
2023/09/21 03:33:24;;;;;;;13.20;7.30;;;;;;;11.42;100.00;101628.02;105556;1258;63117;-47
2023/09/21 03:35:54;;;;;;;13.40;7.30;;;;;;;11.39;100.00;101626.14;105553;1257;71429;-50
2023/09/21 03:38:22;;;;;;;10.50;6.70;;;;;;;11.35;100.00;101626.33;105580;1260;60504;-50
2023/09/21 03:40:53;;;;;;;13.70;6.30;;;;;;;11.33;100.00;101625.30;105533;1261;59627;-51
2023/09/21 03:43:22;;;;;;;12.50;7.90;;;;;;;11.31;100.00;101622.55;105568;1256;73045;-50
2023/09/21 03:45:50;;;;;;;24.00;7.90;;;;;;;11.28;100.00;101615.63;105584;1260;63111;-49
2023/09/21 03:48:18;;;;;;;22.30;7.60;;;;;;;11.31;100.00;101609.23;105462;1263;71386;-51
2023/09/21 03:50:49;;;;;;;14.40;7.30;;;;;;;11.34;100.00;101601.61;105619;1256;60459;-49
2023/09/21 03:53:17;;;;;;;10.70;7.20;;;;;;;11.36;100.00;101592.96;105575;1256;59583;-50
2023/09/21 03:55:46;;;;;;;19.10;6.80;;;;;;;11.37;100.00;101587.08;105530;1257;72839;-51
2023/09/21 03:58:14;;;;;;;15.60;6.90;;;;;;;11.38;100.00;101585.35;105535;1262;64455;-49
2023/09/21 04:00:46;;;;;;;13.80;7.10;;;;;;;11.40;100.00;101581.71;105524;1256;72728;-50
2023/09/21 04:03:14;;;;;;;20.00;7.50;;;;;;;11.46;100.00;101577.70;105606;1257;60001;-50
2023/09/21 04:06:06;;;;;;;24.20;8.30;;;;;;;11.56;100.00;101566.61;105521;1260;59635;-50
2023/09/21 04:08:34;;;;;;;14.20;7.00;;;;;;;11.66;100.00;101557.91;105555;1258;73417;-49
2023/09/21 04:11:02;;;;;;;10.70;7.10;;;;;;;11.77;100.00;101551.63;105483;1257;64562;-49
2023/09/21 04:13:29;;;;;;;20.00;6.90;;;;;;;11.91;100.00;101550.52;105532;1261;72401;-51
2023/09/21 04:15:58;;;;;;;13.40;7.70;;;;;;;12.06;100.00;101546.27;105584;1256;59784;-51
2023/09/21 04:18:26;;;;;;;18.40;7.60;;;;;;;12.24;100.00;101540.09;105614;1257;59538;-51
2023/09/21 04:20:54;;;;;;;16.10;8.20;;;;;;;12.44;100.00;101536.12;105499;1256;71782;-50
2023/09/21 04:23:43;;;;;;;14.60;7.00;;;;;;;12.66;100.00;101539.90;105528;1256;63501;-50
2023/09/21 04:26:12;;;;;;;14.10;7.20;;;;;;;12.86;100.00;101544.88;105566;1258;71458;-49
2023/09/21 04:28:40;;;;;;;18.20;7.50;;;;;;;13.05;100.00;101547.63;105544;1258;60008;-49
2023/09/21 04:31:13;;;;;;;15.30;7.40;;;;;;;13.22;100.00;101552.98;105534;1262;59728;-51
2023/09/21 04:33:42;;;;;;;21.40;6.40;;;;;;;13.35;100.00;101570.67;105553;1256;71839;-50
2023/09/21 04:36:10;;;;;;;14.20;6.40;;;;;;;13.49;100.00;101582.84;105548;1258;63110;-49
2023/09/21 04:38:38;;;;;;;11.70;6.80;;;;;;;13.62;100.00;101596.90;105579;1258;70555;-51
2023/09/21 04:41:13;;;;;;;15.10;6.20;;;;;;;13.74;100.00;101611.66;105559;1262;59990;-49
2023/09/21 04:43:41;;;;;;;19.80;7.60;;;;;;;13.84;100.00;101629.41;105515;1258;59645;-50
2023/09/21 04:46:12;;;;;;;13.30;6.90;;;;;;;13.93;100.00;101647.33;105599;1257;72105;-49
2023/09/21 04:48:40;;;;;;;18.40;6.40;;;;;;;14.02;100.00;101656.75;105566;1257;63128;-49
2023/09/21 04:51:12;;;;;;;19.00;6.30;;;;;;;14.09;100.00;101667.60;105539;1260;71888;-52
2023/09/21 04:53:43;;;;;;;14.70;6.40;;;;;;;14.14;100.00;101666.83;105587;1256;60430;-50
2023/09/21 04:56:11;;;;;;;10.20;6.20;;;;;;;14.18;100.00;101651.48;105566;1256;60448;-51
2023/09/21 04:58:39;;;;;;;9.90;6.80;;;;;;;14.23;100.00;101619.64;105524;1262;73938;-50
2023/09/21 05:01:09;;;;;;;19.40;5.90;;;;;;;14.27;100.00;101578.09;105558;1262;63174;-51
2023/09/21 05:03:37;;;;;;;10.00;5.70;;;;;;;14.32;100.00;101524.20;105548;1258;72166;-50
2023/09/21 05:06:05;;;;;;;21.70;6.50;;;;;;;14.38;100.00;101446.99;105512;1262;60363;-49
2023/09/21 05:08:36;;;;;;;13.20;5.90;;;;;;;14.43;100.00;101384.23;105542;1256;60727;-50
2023/09/21 05:11:04;;;;;;;12.10;6.50;;;;;;;14.47;100.00;101319.18;105508;1256;72555;-52
2023/09/21 05:13:31;;;;;;;12.80;6.20;;;;;;;14.51;100.00;101259.71;105594;1256;63728;-50
2023/09/21 05:16:01;;;;;;;18.30;6.50;;;;;;;14.56;100.00;101198.13;105631;1260;71398;-51
2023/09/21 05:44:03;;;;;;;7.90;6.00;;;;;;;15.51;100.00;100749.34;102629;1291;600992;-54
2023/09/21 05:46:31;;;;;;;13.40;5.00;;;;;;;15.60;100.00;100751.98;104799;1271;60454;-50
2023/09/21 05:48:59;;;;;;;13.50;5.50;;;;;;;15.70;100.00;100741.70;104828;1267;59241;-53
2023/09/21 05:51:27;;;;;;;12.90;6.10;;;;;;;15.81;100.00;100732.28;104622;1265;70922;-50
2023/09/21 05:53:54;;;;;;;12.70;5.10;;;;;;;15.93;100.00;100731.20;104884;1266;63255;-52
2023/09/21 05:56:22;;;;;;;15.90;6.90;;;;;;;16.03;100.00;100723.17;104826;1266;71494;-51
2023/09/21 05:58:51;;;;;;;18.00;6.60;;;;;;;16.13;100.00;100719.49;104785;1271;241356;-50
2023/09/21 06:01:18;;;;;;;15.30;7.60;;;;;;;16.25;100.00;100716.10;104956;1266;59271;-49
2023/09/21 06:03:46;;;;;;;25.60;7.30;;;;;;;16.37;100.00;100719.29;104922;1266;72185;-48
2023/09/21 06:06:14;;;;;;;19.70;7.50;;;;;;;16.50;100.00;100719.69;104906;1266;63206;-50
2023/09/21 06:08:43;;;;;;;25.50;7.50;;;;;;;16.63;100.00;100725.77;104946;1266;71457;-50
2023/09/21 06:11:11;;;;;;;26.40;7.10;;;;;;;16.77;100.00;100724.70;105087;1265;59682;-49
2023/09/21 06:13:39;;;;;;;28.30;8.30;;;;;;;16.90;100.00;100725.06;105102;1268;59878;-49
2023/09/21 06:16:08;;;;;;;24.10;8.40;;;;;;;17.03;100.00;100727.19;105052;1264;71825;-51
2023/09/21 06:18:36;;;;;;;21.00;7.10;;;;;;;17.13;100.00;100727.11;105124;1266;63136;-49
2023/09/21 06:21:06;;;;;;;29.50;7.90;;;;;;;17.24;100.00;100723.69;104947;1266;72627;-49
2023/09/21 06:23:34;;;;;;;13.80;6.60;;;;;;;17.35;100.00;100725.67;104922;1267;60398;-50
2023/09/21 06:26:01;;;;;;;18.30;6.30;;;;;;;17.44;100.00;100736.97;104869;1268;59648;-50
2023/09/21 06:28:29;;;;;;;22.30;6.80;;;;;;;17.56;100.00;100742.06;104884;1270;72939;-51
2023/09/21 06:31:04;;;;;;;24.50;6.60;;;;;;;17.67;100.00;100757.82;104977;1266;64480;-52
2023/09/21 06:33:32;;;;;;;19.70;5.90;;;;;;;17.79;100.00;100775.11;104871;1266;71834;-49
2023/09/21 06:36:00;;;;;;;22.20;6.30;;;;;;;17.90;100.00;100807.80;105051;1263;59677;-51
2023/09/21 06:38:28;;;;;;;13.10;6.10;;;;;;;18.00;100.00;100826.91;105060;1268;59608;-51
2023/09/21 06:40:55;;;;;;;25.40;6.50;;;;;;;18.11;100.00;100847.77;104900;1270;73002;-51
2023/09/21 06:43:26;;;;;;;23.60;7.10;;;;;;;18.22;100.00;100867.58;104845;1266;63251;-52
2023/09/21 06:45:53;;;;;;;21.20;6.40;;;;;;;18.32;100.00;100884.92;104837;1270;71695;-51
2023/09/21 06:48:21;;;;;;;24.70;7.20;;;;;;;18.41;100.00;100905.49;105034;1266;59662;-51
2023/09/21 06:50:49;;;;;;;23.40;6.90;;;;;;;18.53;100.00;100913.90;104856;1266;60957;-50
2023/09/21 06:53:17;;;;;;;16.20;6.90;;;;;;;18.64;100.00;100928.27;104826;1270;73990;-51
2023/09/21 06:55:45;;;;;;;24.60;8.10;;;;;;;18.78;100.00;100930.79;104958;1268;64444;-50
2023/09/21 06:58:13;;;;;;;25.60;7.60;;;;;;;18.93;100.00;100935.89;104857;1266;73008;-49
2023/09/21 07:00:41;;;;;;;21.30;7.30;;;;;;;19.08;100.00;100942.42;104863;1269;60426;-51
2023/09/21 07:03:10;;;;;;;25.80;8.70;;;;;;;19.23;100.00;100944.67;104857;1266;59928;-51
2023/09/21 07:05:43;;;;;;;27.10;9.50;;;;;;;19.38;100.00;100937.31;104870;1270;71313;-50
2023/09/21 07:08:12;;;;;;;28.70;7.70;;;;;;;19.54;100.00;100933.06;104883;1270;64701;-51
2023/09/21 07:10:39;;;;;;;26.00;8.60;;;;;;;19.69;100.00;100935.83;104967;1267;71453;-51
2023/09/21 07:13:08;;;;;;;29.20;8.70;;;;;;;19.87;100.00;100934.80;104803;1266;60765;-49
2023/09/21 07:15:37;;;;;;;46.20;9.30;;;;;;;20.02;100.00;100930.57;104854;1270;59588;-51
2023/09/21 07:18:06;;;;;;;30.10;9.60;;;;;;;20.19;100.00;100956.67;104939;1265;71789;-51
2023/09/21 07:20:34;;;;;;;50.20;11.80;;;;;;;20.35;100.00;100981.79;104887;1266;63136;-50
2023/09/21 07:23:02;;;;;;;38.30;9.80;;;;;;;20.52;100.00;101001.79;104840;1270;71762;-51
2023/09/21 07:25:29;;;;;;;36.10;9.30;;;;;;;20.70;100.00;101015.94;104854;1266;60596;-49
2023/09/21 07:27:57;;;;;;;33.80;11.30;;;;;;;20.87;100.00;101021.21;104949;1268;59577;-49
2023/09/21 07:30:25;;;;;;;25.30;9.70;;;;;;;21.06;100.00;101017.77;105466;1259;72003;-50
2023/09/21 07:32:56;;;;;;;36.60;10.40;;;;;;;21.27;100.00;101008.06;105561;1262;64450;-49
2023/09/21 07:35:24;;;;;;;25.60;10.50;;;;;;;21.44;100.00;101002.21;105480;1259;73445;-51
2023/09/21 07:37:53;;;;;;;28.00;9.50;;;;;;;21.58;100.00;101017.93;105454;1259;59687;-50
2023/09/21 07:40:21;;;;;;;21.00;10.30;;;;;;;21.72;100.00;101037.37;105570;1262;60042;-52
2023/09/21 07:42:51;;;;;;;21.50;9.50;;;;;;;21.85;100.00;101050.56;105572;1259;71786;-50
2023/09/21 07:45:20;;;;;;;28.20;10.30;;;;;;;21.97;100.00;101063.91;105561;1260;63215;-52
2023/09/21 07:47:49;;;;;;;27.60;10.70;;;;;;;22.13;100.00;101069.71;105472;1260;73014;-50
2023/09/21 07:50:22;;;;;;;26.70;10.80;;;;;;;22.28;100.00;101081.67;105481;1261;59830;-50
2023/09/21 07:52:53;;;;;;;35.10;10.10;;;;;;;22.43;98.70;101088.00;105555;1257;60877;-52
2023/09/21 07:55:21;;;;;;;23.90;10.50;;;;;;;22.61;97.25;101103.87;105484;1259;72514;-51
2023/09/21 07:57:50;;;;;;;25.60;10.70;;;;;;;22.78;89.59;101099.89;105502;1260;63107;-51
2023/09/21 08:00:19;;;;;;;23.10;11.10;;;;;;;22.91;82.64;101095.06;105543;1258;72152;-51
2023/09/21 08:02:47;;;;;;;26.30;10.60;;;;;;;23.03;81.09;101107.55;105496;1259;60502;-51
2023/09/21 08:05:15;;;;;;;28.80;10.50;;;;;;;23.20;80.61;101113.58;105493;1262;61068;-52
2023/09/21 08:07:44;;;;;;;26.30;9.30;;;;;;;23.37;79.77;101123.45;105491;1259;71863;-50
2023/09/21 08:10:12;;;;;;;42.60;10.60;;;;;;;23.54;72.46;101040.38;105456;1262;64815;-54
2023/09/21 08:12:41;;;;;;;34.00;10.60;;;;;;;23.66;68.83;101004.16;105399;1259;71509;-53
2023/09/21 08:15:11;;;;;;;43.40;10.50;;;;;;;23.81;67.45;101007.27;105243;1262;60396;-52
2023/09/21 08:17:39;;;;;;;27.00;9.10;;;;;;;23.97;65.76;100988.61;105523;1260;59904;-52
2023/09/21 08:20:09;;;;;;;19.80;8.50;;;;;;;24.13;63.96;100961.11;105563;1258;71752;-52
2023/09/21 08:22:38;;;;;;;21.80;7.90;;;;;;;24.35;63.01;100949.40;105492;1260;64734;-49
2023/09/21 08:25:08;;;;;;;20.50;7.50;;;;;;;24.57;61.42;100903.65;105458;1263;73260;-51
2023/09/21 08:27:36;;;;;;;34.40;10.10;;;;;;;24.75;59.84;100852.10;105484;1262;59776;-51
2023/09/21 08:30:08;;;;;;;18.60;9.10;;;;;;;24.92;59.49;100868.56;105472;1259;60014;-54
2023/09/21 08:32:36;;;;;;;18.30;8.60;;;;;;;25.12;59.18;100865.13;105487;1260;72229;-50
2023/09/21 08:35:04;;;;;;;24.30;7.40;;;;;;;25.35;57.78;100788.38;105452;1262;64794;-51
2023/09/21 08:37:32;;;;;;;25.70;8.00;;;;;;;25.55;56.31;100685.55;105570;1261;71408;-51
2023/09/21 08:40:00;;;;;;;18.30;7.40;;;;;;;25.68;54.73;100602.05;105594;1262;59982;-52
2023/09/21 08:42:28;;;;;;;14.60;6.70;;;;;;;25.83;54.00;100545.12;105576;1260;59911;-51
2023/09/21 08:44:56;;;;;;;16.70;7.20;;;;;;;26.01;53.17;100485.34;105327;1264;73451;-50
2023/09/21 08:47:24;;;;;;;13.80;6.80;;;;;;;26.18;51.24;100324.02;105408;1262;64873;-50
2023/09/21 08:50:07;;;;;;;16.30;6.20;;;;;;;26.27;48.64;100027.90;105443;1262;72885;-50
2023/09/21 08:52:36;;;;;;;17.30;6.50;;;;;;;26.36;48.16;99962.91;105482;1262;60611;-50
2023/09/21 08:55:06;;;;;;;19.30;6.00;;;;;;;26.54;48.21;100029.84;105491;1262;59914;-51
2023/09/21 08:57:34;;;;;;;20.80;6.10;;;;;;;26.71;48.16;100019.61;105600;1261;73271;-52
2023/09/21 09:00:06;;;;;;;13.50;5.70;;;;;;;26.84;46.31;99830.50;105585;1262;64673;-52
2023/09/21 09:02:35;;;;;;;12.50;4.90;;;;;;;26.98;47.03;99926.65;105465;1262;72534;-51
2023/09/21 09:05:08;;;;;;;7.30;4.20;;;;;;;27.17;45.69;99776.52;105593;1259;59671;-52
2023/09/21 09:07:40;;;;;;;12.90;4.20;;;;;;;27.29;44.73;99626.65;105595;1262;59634;-50
2023/09/21 09:10:09;;;;;;;4.70;3.70;;;;;;;27.45;45.22;99724.12;105674;1253;71780;-51
2023/09/21 09:12:39;;;;;;;9.00;4.10;;;;;;;27.61;42.95;99382.44;105683;1258;64581;-53
2023/09/21 09:15:08;;;;;;;8.70;3.60;;;;;;;27.57;41.87;99245.57;105680;1259;74539;-52
2023/09/21 09:17:36;;;;;;;9.70;3.10;;;;;;;27.53;42.36;99311.83;105700;1259;60133;-52
2023/09/21 09:20:05;;;;;;;7.50;3.00;;;;;;;27.57;41.41;99202.70;105793;1255;60481;-52
2023/09/21 09:22:34;;;;;;;5.90;2.80;;;;;;;27.57;42.15;99307.45;105641;1256;73372;-52
2023/09/21 09:25:04;;;;;;;4.10;2.60;;;;;;;27.72;41.71;99271.55;105666;1255;63148;-51
2023/09/21 09:27:34;;;;;;;8.20;1.90;;;;;;;27.87;39.74;99022.21;105754;1259;73805;-52
2023/09/21 09:30:08;;;;;;;5.00;2.20;;;;;;;27.94;40.17;99023.88;105660;1253;60602;-52
2023/09/21 09:32:44;;;;;;;8.30;2.10;;;;;;;28.00;39.57;98972.72;105787;1259;60064;-51
2023/09/21 09:35:13;;;;;;;2.30;1.60;;;;;;;28.01;38.46;98800.67;105642;1259;73801;-52
2023/09/21 09:37:42;;;;;;;6.90;2.20;;;;;;;27.96;38.75;98792.34;105679;1258;63969;-51
2023/09/21 09:40:15;;;;;;;3.90;2.20;;;;;;;28.04;38.83;98853.65;105656;1259;71837;-51
2023/09/21 09:42:45;;;;;;;3.90;2.30;;;;;;;28.13;38.92;98828.70;105674;1258;59674;-50
2023/09/21 09:45:24;;;;;;;4.30;2.50;;;;;;;28.15;38.86;98835.17;105672;1254;59608;-51
2023/09/21 09:47:57;;;;;;;3.00;2.30;;;;;;;28.17;38.48;98812.64;105669;1254;71733;-50
2023/09/21 09:50:25;;;;;;;7.90;2.20;;;;;;;28.22;38.83;98854.20;105643;1259;64386;-52
2023/09/21 09:53:06;;;;;;;7.20;3.20;;;;;;;28.30;37.78;98745.64;105642;1258;70986;-52
2023/09/21 09:55:36;;;;;;;3.90;2.30;;;;;;;28.29;37.35;98644.95;105685;1258;60506;-53
2023/09/21 09:58:05;;;;;;;5.60;2.10;;;;;;;28.26;37.58;98654.85;105683;1253;60410;-52
2023/09/21 10:00:39;;;;;;;13.10;2.30;;;;;;;28.25;38.00;98715.45;105786;1259;72172;-52
2023/09/21 10:03:09;;;;;;;7.40;2.60;;;;;;;28.31;38.21;98777.48;105728;1254;64453;-52
2023/09/21 10:05:38;;;;;;;4.30;2.30;;;;;;;28.36;37.85;98719.30;105762;1259;72856;-51
2023/09/21 10:08:08;;;;;;;8.90;2.30;;;;;;;28.45;38.63;98828.35;105713;1253;60512;-53
2023/09/21 10:10:44;;;;;;;4.10;2.20;;;;;;;28.52;37.76;98725.34;105699;1253;60429;-52
2023/09/21 10:13:12;;;;;;;3.80;2.40;;;;;;;28.45;37.23;98671.77;105688;1254;74262;-51
2023/09/21 10:15:41;;;;;;;9.70;2.90;;;;;;;28.44;37.43;98658.14;105683;1259;63492;-51
2023/09/21 10:18:09;;;;;;;7.20;2.60;;;;;;;28.48;37.03;98622.80;105676;1257;71448;-53
2023/09/21 10:20:37;;;;;;;5.90;2.70;;;;;;;28.52;36.79;98595.14;105673;1259;60492;-52
2023/09/21 10:23:09;;;;;;;4.40;2.50;;;;;;;28.58;36.80;98587.17;105750;1259;60527;-51
2023/09/21 10:25:41;;;;;;;5.50;2.70;;;;;;;28.60;36.19;98504.54;105654;1259;74535;-52
2023/09/21 10:28:27;;;;;;;9.10;2.70;;;;;;;28.59;36.88;98576.86;105676;1258;63120;-52
2023/09/21 10:31:09;;;;;;;3.20;2.80;;;;;;;28.64;36.76;98568.67;105655;1260;71375;-55
2023/09/21 10:33:48;;;;;;;8.20;2.80;;;;;;;28.63;36.80;98559.54;105533;1254;61028;-52
2023/09/21 10:36:21;;;;;;;13.20;3.40;;;;;;;28.63;37.72;98687.06;105695;1253;60716;-53
2023/09/21 10:39:13;;;;;;;16.60;3.30;;;;;;;28.68;37.09;98668.16;105630;1258;74643;-52
2023/09/21 10:41:43;;;;;;;7.00;3.00;;;;;;;28.70;36.40;98565.46;105680;1253;64906;-52
2023/09/21 10:44:13;;;;;;;8.10;3.30;;;;;;;28.66;36.49;98557.48;105633;1259;71454;-53
2023/09/21 10:46:41;;;;;;;3.00;2.60;;;;;;;28.63;36.38;98563.23;105653;1258;60764;-57
2023/09/21 10:49:13;;;;;;;5.10;3.10;;;;;;;28.56;35.99;98493.50;105697;1258;60441;-56
2023/09/21 10:51:41;;;;;;;14.70;3.50;;;;;;;28.54;36.63;98577.67;105688;1259;74190;-57
2023/09/21 10:54:10;;;;;;;14.80;3.50;;;;;;;28.62;35.96;98498.62;105622;1253;63165;-56
2023/09/21 10:56:39;;;;;;;6.50;3.10;;;;;;;28.65;35.50;98415.70;105688;1258;72687;-53
2023/09/21 10:59:07;;;;;;;6.10;3.40;;;;;;;28.59;34.90;98323.98;105672;1254;60415;-54
2023/09/21 11:01:35;;;;;;;5.00;3.40;;;;;;;28.49;35.49;98392.23;105676;1254;60338;-52
2023/09/21 11:04:03;;;;;;;7.60;3.30;;;;;;;28.60;35.89;98463.23;105684;1259;74333;-54
2023/09/21 11:06:31;;;;;;;5.50;3.10;;;;;;;28.74;36.90;98575.58;105673;1259;64347;-56
2023/09/21 11:09:00;;;;;;;10.90;2.90;;;;;;;28.91;36.27;98561.43;105705;1255;72795;-58
2023/09/21 11:11:28;;;;;;;12.20;3.20;;;;;;;29.01;36.43;98551.99;105688;1259;60536;-53
2023/09/21 11:13:56;;;;;;;7.10;3.30;;;;;;;29.12;35.53;98466.08;105709;1258;60426;-54
2023/09/21 11:16:23;;;;;;;9.70;3.40;;;;;;;29.22;34.57;98312.13;105695;1259;74899;-58
2023/09/21 11:18:53;;;;;;;8.00;3.60;;;;;;;29.30;35.22;98395.55;105607;1259;64788;-52
2023/09/21 11:21:22;;;;;;;8.40;3.10;;;;;;;29.34;35.32;98390.60;105671;1256;71431;-55
2023/09/21 11:23:50;;;;;;;12.10;3.80;;;;;;;29.32;34.68;98324.91;105732;1260;60514;-52
2023/09/21 11:26:17;;;;;;;28.20;4.20;;;;;;;29.23;34.47;98290.48;105713;1258;60420;-51
2023/09/21 11:28:45;;;;;;;15.10;3.80;;;;;;;29.28;36.33;98497.34;105671;1258;74145;-52
2023/09/21 11:31:14;;;;;;;7.20;3.30;;;;;;;29.42;35.20;98450.25;105728;1259;64380;-53
2023/09/21 11:33:42;;;;;;;3.50;3.10;;;;;;;29.50;35.69;98446.58;105590;1255;72687;-52
2023/09/21 11:36:10;;;;;;;4.50;2.80;;;;;;;29.62;33.96;98272.55;105807;1255;60465;-51
2023/09/21 11:38:37;;;;;;;6.90;3.30;;;;;;;29.63;35.12;98322.15;105643;1259;60985;-51
2023/09/21 11:41:05;;;;;;;4.90;3.30;;;;;;;29.67;34.68;98329.00;105680;1258;74085;-52
2023/09/21 11:43:33;;;;;;;10.60;3.50;;;;;;;29.69;34.66;98325.60;105635;1255;65842;-52
2023/09/21 11:46:06;;;;;;;13.80;3.50;;;;;;;29.74;33.58;98170.29;105634;1259;73334;-51